Time;durP1;ratioP1;P1;durP2;ratioP2;P2;SDS_P1;SDS_P2;PMS_P1;PMS_P2;Temp;Humidity;BMP_temperature;BMP_pressure;BME280_temperature;BME280_humidity;BME280_pressure;Samples;Min_cycle;Max_cycle;Signal;HPM_P1;HPM_P2
2022/07/04 00:02:00;;;;;;;1.77;1.40;;;;;;;21.76;84.23;100450.25;4964557;28;20189;-76
2022/07/04 00:04:25;;;;;;;1.73;1.60;;;;;;;21.67;84.18;100459.47;4967052;28;20244;-75
2022/07/04 00:06:51;;;;;;;2.77;1.70;;;;;;;21.63;84.88;100463.19;4964084;28;20190;-76
2022/07/04 00:09:16;;;;;;;2.93;1.37;;;;;;;21.56;85.29;100465.28;4960786;28;20213;-77
2022/07/04 00:11:42;;;;;;;3.37;1.57;;;;;;;21.57;84.82;100466.16;4962719;28;20190;-76
2022/07/04 00:14:07;;;;;;;4.97;1.60;;;;;;;21.57;84.67;100463.50;4963370;28;20206;-75
2022/07/04 00:16:34;;;;;;;3.50;1.57;;;;;;;21.56;84.12;100452.09;4967021;28;20210;-76
2022/07/04 00:19:00;;;;;;;2.00;1.40;;;;;;;21.53;83.54;100451.44;4964575;28;20196;-76
2022/07/04 00:21:25;;;;;;;1.87;1.60;;;;;;;21.48;84.49;100451.66;4966312;28;20212;-76
2022/07/04 00:23:54;;;;;;;2.37;1.60;;;;;;;21.47;84.67;100461.38;4970668;28;20261;-76
2022/07/04 00:26:19;;;;;;;2.23;1.53;;;;;;;21.43;85.21;100462.44;4968105;28;20244;-77
2022/07/04 00:28:44;;;;;;;2.40;1.70;;;;;;;21.38;85.74;100461.00;4966804;28;20577;-76
2022/07/04 00:31:10;;;;;;;3.67;1.93;;;;;;;21.36;86.00;100468.09;4966788;28;20185;-76
2022/07/04 00:33:35;;;;;;;1.67;1.40;;;;;;;21.29;85.92;100465.78;4967984;28;20221;-75
2022/07/04 00:36:01;;;;;;;1.97;1.37;;;;;;;21.20;86.56;100475.91;4970072;28;20692;-76
2022/07/04 00:38:26;;;;;;;2.03;1.70;;;;;;;21.11;86.82;100475.47;4973892;28;20190;-76
2022/07/04 00:40:51;;;;;;;1.60;1.20;;;;;;;21.05;86.60;100475.75;4961476;28;20225;-76
2022/07/04 00:43:27;;;;;;;2.37;1.70;;;;;;;20.96;86.85;100482.31;4960009;28;20190;-75
2022/07/04 00:45:53;;;;;;;1.57;1.47;;;;;;;20.89;86.75;100480.94;4959596;28;20239;-76
2022/07/04 00:48:19;;;;;;;3.73;1.53;;;;;;;20.84;86.50;100490.81;4964439;28;20241;-75
2022/07/04 00:50:46;;;;;;;2.83;1.30;;;;;;;20.79;86.91;100491.06;4964659;28;20214;-76
2022/07/04 00:53:13;;;;;;;2.80;1.90;;;;;;;20.76;86.85;100478.06;4962901;28;20188;-75
2022/07/04 00:55:39;;;;;;;2.97;1.60;;;;;;;20.70;86.96;100484.44;4964091;28;20272;-75
2022/07/04 00:58:06;;;;;;;1.73;1.50;;;;;;;20.70;86.83;100492.31;4965097;28;20255;-75
2022/07/04 01:00:31;;;;;;;1.77;1.50;;;;;;;20.68;86.95;100491.53;4961294;28;20229;-77
2022/07/04 01:02:57;;;;;;;2.00;1.40;;;;;;;20.65;87.17;100491.69;4963949;28;20181;-76
2022/07/04 01:05:22;;;;;;;2.67;1.23;;;;;;;20.66;86.96;100482.88;4963767;28;20208;-75
2022/07/04 01:07:47;;;;;;;2.20;1.57;;;;;;;20.64;87.47;100494.41;4962549;28;20247;-76
2022/07/04 01:10:13;;;;;;;2.27;1.37;;;;;;;20.61;87.71;100484.88;4962531;28;20194;-77
2022/07/04 01:12:38;;;;;;;2.00;1.50;;;;;;;20.56;88.07;100478.97;4962868;28;20654;-76
2022/07/04 01:15:06;;;;;;;3.63;1.57;;;;;;;20.56;88.08;100476.34;4966048;28;20721;-76
2022/07/04 01:17:32;;;;;;;2.87;1.57;;;;;;;20.48;88.07;100470.63;4959872;28;20700;-76
2022/07/04 01:19:58;;;;;;;1.53;1.37;;;;;;;20.40;88.67;100484.13;4977434;28;20193;-75
2022/07/04 01:22:23;;;;;;;3.40;1.53;;;;;;;20.35;88.80;100494.00;4961590;28;20526;-76
2022/07/04 01:24:49;;;;;;;1.77;1.40;;;;;;;20.33;88.56;100499.34;4966002;28;20572;-77
2022/07/04 01:27:16;;;;;;;3.23;1.60;;;;;;;20.28;89.10;100498.69;4963276;28;21385;-77
2022/07/04 01:29:41;;;;;;;1.50;1.40;;;;;;;20.25;89.30;100502.31;4961263;28;20185;-76
2022/07/04 01:32:08;;;;;;;3.20;1.50;;;;;;;20.25;89.84;100504.06;4976998;28;20248;-76
2022/07/04 01:34:34;;;;;;;1.53;1.43;;;;;;;20.23;90.04;100506.78;4960432;28;20382;-76
2022/07/04 01:37:00;;;;;;;1.70;1.60;;;;;;;20.22;90.49;100514.72;4964826;28;20688;-76
2022/07/04 01:39:29;;;;;;;2.83;1.60;;;;;;;20.21;90.35;100507.75;4965075;28;20279;-76
2022/07/04 01:41:54;;;;;;;1.70;1.30;;;;;;;20.22;90.33;100504.22;4962309;28;20190;-76
2022/07/04 01:44:20;;;;;;;3.57;1.80;;;;;;;20.21;90.64;100513.88;4964832;28;20188;-76
2022/07/04 01:46:45;;;;;;;3.07;1.70;;;;;;;20.18;90.07;100515.81;4963118;28;20223;-75
2022/07/04 01:49:11;;;;;;;2.73;1.70;;;;;;;20.15;90.30;100519.41;4964341;28;20188;-76
2022/07/04 01:51:44;;;;;;;1.77;1.30;;;;;;;20.14;89.95;100515.06;4967863;28;20634;-77
2022/07/04 01:54:09;;;;;;;1.97;1.50;;;;;;;20.15;89.62;100513.31;4967908;28;20207;-76
2022/07/04 01:56:35;;;;;;;1.60;1.37;;;;;;;20.13;89.77;100512.53;4979991;28;20215;-77
2022/07/04 01:59:01;;;;;;;1.60;1.50;;;;;;;20.08;89.71;100516.22;4966007;28;20198;-76
2022/07/04 02:01:29;;;;;;;1.53;1.20;;;;;;;20.07;90.00;100522.38;4966979;28;20645;-76
2022/07/04 02:03:59;;;;;;;3.17;1.63;;;;;;;20.07;90.18;100526.78;4965507;28;20281;-76
2022/07/04 02:06:25;;;;;;;3.47;1.30;;;;;;;20.02;90.16;100534.88;4966963;28;20218;-76
2022/07/04 02:14:20;;;;;;;2.53;1.23;;;;;;;19.98;90.78;100522.81;4964737;28;20592;-76
2022/07/04 02:16:45;;;;;;;1.50;1.40;;;;;;;19.93;91.00;100517.75;4963527;28;20203;-76
2022/07/04 02:19:10;;;;;;;1.60;1.40;;;;;;;19.91;90.79;100522.22;4965004;28;20664;-76
2022/07/04 02:21:36;;;;;;;1.40;1.30;;;;;;;19.90;90.92;100530.16;4962731;28;20194;-77
2022/07/04 02:24:05;;;;;;;1.80;1.50;;;;;;;19.88;91.15;100530.22;4982931;28;20176;-76
2022/07/04 02:26:30;;;;;;;1.60;1.20;;;;;;;19.86;91.13;100531.19;4971007;28;20213;-76
2022/07/04 02:28:56;;;;;;;1.67;1.30;;;;;;;19.85;91.58;100532.13;4974286;28;20184;-76
2022/07/04 02:31:21;;;;;;;1.40;1.30;;;;;;;19.84;91.35;100530.41;4983133;28;20199;-76
2022/07/04 02:33:47;;;;;;;3.63;1.47;;;;;;;19.80;91.63;100532.31;4968585;28;20186;-76
2022/07/04 02:36:12;;;;;;;1.57;1.40;;;;;;;19.80;93.32;100529.69;4971167;28;20696;-76
2022/07/04 02:38:37;;;;;;;1.40;1.30;;;;;;;19.75;92.91;100537.75;4977990;28;20191;-77
2022/07/04 02:41:03;;;;;;;1.63;1.20;;;;;;;19.71;93.24;100540.59;4973170;28;20202;-77
2022/07/04 02:43:28;;;;;;;1.10;1.00;;;;;;;19.68;93.17;100544.22;4986388;28;20261;-77
2022/07/04 02:45:54;;;;;;;1.17;1.07;;;;;;;19.68;94.11;100543.34;4985621;28;20209;-77
2022/07/04 02:48:19;;;;;;;1.40;1.27;;;;;;;19.70;94.98;100538.88;4967994;28;20221;-77
2022/07/04 02:50:45;;;;;;;1.63;1.40;;;;;;;19.68;95.00;100532.84;4969580;28;20232;-76
2022/07/04 02:53:10;;;;;;;1.33;1.23;;;;;;;19.65;94.31;100539.09;4967362;28;20204;-76
2022/07/04 02:55:35;;;;;;;1.57;1.40;;;;;;;19.64;94.02;100537.38;4969658;28;20917;-77
2022/07/04 02:58:01;;;;;;;1.50;1.40;;;;;;;19.64;93.45;100540.88;4972618;28;20263;-77
2022/07/04 03:00:26;;;;;;;1.50;1.40;;;;;;;19.62;92.63;100540.06;4962780;28;20194;-76
2022/07/04 03:02:54;;;;;;;2.03;1.30;;;;;;;19.57;93.07;100539.41;4966006;28;20570;-76
2022/07/04 03:05:19;;;;;;;1.60;1.50;;;;;;;19.55;93.21;100538.63;4960704;28;20296;-76
2022/07/04 03:07:45;;;;;;;1.83;1.47;;;;;;;19.54;93.36;100536.06;4966995;28;20823;-76
2022/07/04 03:10:11;;;;;;;1.77;1.47;;;;;;;19.55;93.57;100550.91;4962090;28;20204;-77
2022/07/04 03:12:36;;;;;;;1.50;1.40;;;;;;;19.55;94.05;100545.66;4965149;28;20197;-76
2022/07/04 03:15:02;;;;;;;1.83;1.50;;;;;;;19.56;94.90;100550.81;4967500;28;20221;-76
2022/07/04 03:17:29;;;;;;;1.80;1.47;;;;;;;19.56;95.98;100553.44;4966089;28;20271;-77
2022/07/04 03:19:55;;;;;;;1.50;1.40;;;;;;;19.54;96.41;100547.41;4966357;28;20277;-76
2022/07/04 03:22:21;;;;;;;2.97;1.60;;;;;;;19.48;95.97;100548.53;4965769;28;20271;-76
2022/07/04 03:24:46;;;;;;;1.90;1.30;;;;;;;19.42;95.63;100551.41;4967977;28;20209;-76
2022/07/04 03:27:11;;;;;;;1.93;1.50;;;;;;;19.36;95.02;100556.91;4969900;28;20200;-76
2022/07/04 03:29:37;;;;;;;1.70;1.40;;;;;;;19.32;94.81;100556.19;4963094;28;20300;-75
2022/07/04 03:32:02;;;;;;;1.97;1.60;;;;;;;19.33;95.03;100559.66;4968654;28;20240;-76
2022/07/04 03:34:28;;;;;;;3.07;1.60;;;;;;;19.35;94.93;100560.44;4965091;28;20847;-76
2022/07/04 03:36:53;;;;;;;2.07;1.60;;;;;;;19.34;95.16;100562.25;4967199;28;20206;-77
2022/07/04 03:39:18;;;;;;;3.50;1.60;;;;;;;19.32;95.24;100555.31;4962971;28;20250;-78
2022/07/04 03:41:44;;;;;;;1.70;1.60;;;;;;;19.29;95.18;100558.06;4964457;28;20918;-77
2022/07/04 03:44:09;;;;;;;1.67;1.57;;;;;;;19.28;95.46;100556.41;4965028;28;20197;-75
2022/07/04 03:46:35;;;;;;;1.70;1.60;;;;;;;19.24;95.25;100552.19;4962863;28;20212;-76
2022/07/04 03:49:00;;;;;;;1.80;1.70;;;;;;;19.22;95.04;100560.09;4967354;28;20236;-76
2022/07/04 03:51:25;;;;;;;1.93;1.70;;;;;;;19.21;95.50;100566.25;4976814;28;20610;-76
2022/07/04 03:53:51;;;;;;;1.40;1.30;;;;;;;19.19;95.11;100568.94;4967878;28;20252;-76
2022/07/04 03:56:16;;;;;;;2.17;1.60;;;;;;;19.18;95.14;100569.88;4970969;28;20237;-75
2022/07/04 03:58:42;;;;;;;2.23;1.70;;;;;;;19.17;94.95;100570.78;4966351;28;20199;-75
2022/07/04 04:01:09;;;;;;;1.40;1.30;;;;;;;19.20;95.24;100564.56;4973231;28;20193;-75
2022/07/04 04:06:18;;;;;;;2.17;1.53;;;;;;;19.23;94.99;100571.47;4971145;28;20267;-76
2022/07/04 04:08:44;;;;;;;2.00;1.60;;;;;;;19.24;94.89;100574.00;4966546;28;20197;-75
2022/07/04 04:11:09;;;;;;;1.40;1.30;;;;;;;19.28;94.99;100577.38;4964178;28;20246;-76
2022/07/04 04:13:35;;;;;;;1.93;1.60;;;;;;;19.33;95.05;100584.16;4961455;28;20206;-75
2022/07/04 04:16:00;;;;;;;1.87;1.77;;;;;;;19.38;95.25;100586.56;4965458;28;20960;-75
2022/07/04 04:18:26;;;;;;;1.80;1.50;;;;;;;19.41;95.07;100581.22;4973331;28;20212;-75
2022/07/04 04:20:51;;;;;;;1.53;1.40;;;;;;;19.44;94.64;100588.09;4966458;28;20247;-75
2022/07/04 04:23:17;;;;;;;3.90;1.73;;;;;;;19.47;94.26;100594.06;4968343;28;20201;-75
2022/07/04 04:25:42;;;;;;;2.33;1.73;;;;;;;19.61;93.49;100596.13;4962531;28;20226;-76
2022/07/04 04:28:08;;;;;;;1.70;1.60;;;;;;;19.73;93.31;100614.91;4966845;28;20279;-76
2022/07/04 04:30:33;;;;;;;2.40;1.70;;;;;;;19.93;92.81;100606.19;4970380;28;20232;-77
2022/07/04 04:32:59;;;;;;;1.60;1.50;;;;;;;20.14;92.46;100614.06;4966267;28;20193;-76
2022/07/04 04:35:24;;;;;;;1.67;1.50;;;;;;;20.27;91.55;100612.63;4965750;28;20258;-76
2022/07/04 04:37:49;;;;;;;1.60;1.30;;;;;;;20.34;91.27;100621.06;4969623;28;20203;-76
2022/07/04 04:40:15;;;;;;;1.50;1.40;;;;;;;20.50;90.79;100623.84;4967534;28;20466;-76
2022/07/04 04:42:40;;;;;;;1.50;1.30;;;;;;;20.67;90.01;100623.94;4968313;28;20747;-76
2022/07/04 04:45:06;;;;;;;1.23;1.13;;;;;;;20.73;89.28;100624.59;4966764;28;20684;-75
2022/07/04 04:47:32;;;;;;;1.77;1.20;;;;;;;21.05;88.67;100636.25;4963940;28;20247;-75
2022/07/04 04:49:57;;;;;;;1.50;1.40;;;;;;;21.74;86.57;100628.59;4965839;28;20697;-75
2022/07/04 04:52:23;;;;;;;1.93;1.33;;;;;;;22.34;84.52;100630.78;4966456;28;20193;-75
2022/07/04 04:54:48;;;;;;;1.37;1.10;;;;;;;22.66;83.40;100627.38;4960304;28;20225;-75
2022/07/04 04:57:14;;;;;;;1.67;1.20;;;;;;;23.84;80.72;100631.31;4963761;28;20221;-75
2022/07/04 04:59:39;;;;;;;1.17;1.03;;;;;;;25.22;77.02;100633.47;4966760;28;20205;-76
2022/07/04 05:02:05;;;;;;;1.10;1.00;;;;;;;26.42;74.01;100623.72;4977969;28;20202;-76
2022/07/04 05:04:30;;;;;;;1.60;1.10;;;;;;;27.42;71.55;100636.03;4959936;28;20193;-75
2022/07/04 05:06:56;;;;;;;2.10;1.27;;;;;;;28.01;69.83;100637.78;4961323;28;20198;-76
2022/07/04 05:09:21;;;;;;;2.00;1.10;;;;;;;28.05;69.11;100633.94;4966025;28;20627;-75
2022/07/04 05:11:47;;;;;;;2.27;1.20;;;;;;;28.15;68.47;100642.09;4979584;28;20289;-76
2022/07/04 05:14:13;;;;;;;2.67;1.33;;;;;;;27.84;68.78;100642.59;4967616;28;20712;-76
2022/07/04 05:16:39;;;;;;;1.20;1.10;;;;;;;28.22;68.41;100640.63;4963778;28;20241;-75
2022/07/04 05:19:04;;;;;;;1.27;1.00;;;;;;;28.99;67.35;100647.00;4965835;28;20284;-76
2022/07/04 05:21:30;;;;;;;1.60;1.00;;;;;;;29.77;65.39;100652.16;4983180;28;20193;-77
2022/07/04 05:23:56;;;;;;;1.00;0.90;;;;;;;30.03;64.73;100643.78;4969360;28;20201;-76
2022/07/04 05:26:24;;;;;;;4.47;1.50;;;;;;;30.90;61.56;100630.06;4969003;28;20352;-76
2022/07/04 05:28:49;;;;;;;2.03;1.50;;;;;;;31.73;60.67;100633.22;4965982;28;20225;-76
2022/07/04 05:31:15;;;;;;;3.23;1.20;;;;;;;32.37;58.58;100629.94;4968434;28;20212;-75
2022/07/04 05:33:40;;;;;;;2.92;1.20;;;;;;;32.39;57.39;100627.97;4968235;28;20284;-76
2022/07/04 05:36:06;;;;;;;2.20;1.10;;;;;;;31.47;57.60;100625.75;4961473;28;20225;-77
2022/07/04 05:38:31;;;;;;;1.65;1.10;;;;;;;31.02;57.46;100621.78;4966967;28;20194;-75
2022/07/04 05:40:57;;;;;;;2.83;1.27;;;;;;;30.51;58.15;100625.44;4966454;28;20597;-75
2022/07/04 05:43:25;;;;;;;1.63;1.23;;;;;;;30.40;58.50;100629.91;4964956;28;20189;-76
2022/07/04 05:45:51;;;;;;;5.13;1.63;;;;;;;29.83;58.89;100625.94;4965099;28;20213;-76
2022/07/04 05:48:17;;;;;;;1.90;1.10;;;;;;;29.28;59.31;100626.91;4959945;28;20208;-76
2022/07/04 05:50:42;;;;;;;2.00;1.13;;;;;;;28.73;60.73;100625.16;4965534;28;20182;-76
2022/07/04 05:53:07;;;;;;;2.23;1.27;;;;;;;28.08;61.66;100631.03;4962047;28;20209;-76
2022/07/04 05:55:34;;;;;;;7.37;1.43;;;;;;;28.25;61.62;100631.56;4979481;28;20218;-74
2022/07/04 05:58:00;;;;;;;5.77;1.70;;;;;;;28.70;61.05;100622.69;4982348;28;20218;-75
2022/07/04 06:00:25;;;;;;;5.33;1.40;;;;;;;28.93;60.57;100634.19;4961380;28;20191;-75
2022/07/04 06:02:51;;;;;;;2.50;1.43;;;;;;;28.65;60.90;100625.72;4959787;28;20186;-75
2022/07/04 06:05:16;;;;;;;8.33;1.77;;;;;;;28.66;60.69;100627.44;4965138;28;20282;-75
2022/07/04 06:07:41;;;;;;;6.13;1.30;;;;;;;28.93;60.28;100625.34;4967397;28;20673;-75
2022/07/04 06:10:08;;;;;;;3.57;1.33;;;;;;;28.99;60.13;100617.72;4983102;28;20187;-74
2022/07/04 06:12:34;;;;;;;2.17;1.47;;;;;;;29.45;59.65;100618.38;4965476;28;20248;-75
2022/07/04 06:14:59;;;;;;;2.67;1.23;;;;;;;29.96;58.54;100608.78;4979494;28;20218;-75
2022/07/04 06:17:25;;;;;;;2.97;1.33;;;;;;;30.23;58.24;100615.38;4968489;28;20225;-75
2022/07/04 06:19:50;;;;;;;4.03;1.40;;;;;;;29.59;58.10;100627.03;4963929;28;20648;-75
2022/07/04 06:22:16;;;;;;;5.90;1.70;;;;;;;30.17;58.08;100613.25;4967608;28;20228;-76
2022/07/04 06:24:41;;;;;;;4.03;1.60;;;;;;;30.45;57.67;100605.47;4969386;28;20678;-76
2022/07/04 06:27:07;;;;;;;3.03;1.47;;;;;;;30.69;57.56;100606.97;4963849;28;20613;-75
2022/07/04 06:29:32;;;;;;;2.87;1.43;;;;;;;30.79;57.41;100604.31;4966958;28;20184;-75
2022/07/04 06:31:58;;;;;;;3.23;1.47;;;;;;;30.29;57.57;100614.00;4980300;28;20193;-75
2022/07/04 06:37:07;;;;;;;3.57;1.57;;;;;;;29.09;59.59;100612.47;4964422;28;20579;-75
2022/07/04 06:39:32;;;;;;;4.30;1.70;;;;;;;28.91;59.51;100614.81;4962352;28;20181;-75
2022/07/04 06:41:58;;;;;;;2.57;1.60;;;;;;;29.22;59.58;100614.94;4965676;28;20570;-75
2022/07/04 06:44:23;;;;;;;3.37;1.70;;;;;;;29.63;59.15;100615.16;4964365;28;20186;-76
2022/07/04 06:46:48;;;;;;;5.53;2.03;;;;;;;29.03;59.44;100612.97;4966174;28;20197;-75
2022/07/04 06:49:14;;;;;;;2.57;1.57;;;;;;;28.89;60.32;100611.44;4964301;28;20194;-75
2022/07/04 06:51:39;;;;;;;2.53;1.60;;;;;;;28.51;60.38;100610.84;4966080;28;20212;-74
2022/07/04 06:54:05;;;;;;;3.83;1.60;;;;;;;28.39;60.85;100609.16;4965035;28;20297;-74
2022/07/04 06:56:31;;;;;;;3.17;1.87;;;;;;;28.55;61.34;100616.81;4978899;28;20210;-74
2022/07/04 06:58:56;;;;;;;3.53;1.50;;;;;;;28.42;61.89;100611.59;4964698;28;20189;-76
2022/07/04 07:01:22;;;;;;;5.10;1.57;;;;;;;28.10;61.94;100626.47;4965845;28;20204;-75
2022/07/04 07:03:47;;;;;;;3.20;1.47;;;;;;;28.06;62.05;100616.19;4982588;28;20189;-74
2022/07/04 07:06:13;;;;;;;2.50;1.20;;;;;;;28.23;61.57;100618.38;4968079;28;20222;-75
2022/07/04 07:08:38;;;;;;;3.00;1.40;;;;;;;28.13;61.60;100610.25;4967435;28;20697;-76
2022/07/04 07:11:13;;;;;;;4.00;1.67;;;;;;;27.95;61.66;100611.69;4969635;28;20740;-74
2022/07/04 07:13:44;;;;;;;2.33;1.40;;;;;;;28.09;62.29;100616.81;4965507;28;20193;-76
2022/07/04 07:16:11;;;;;;;3.27;1.40;;;;;;;28.32;62.28;100611.47;4966133;28;20218;-76
2022/07/04 07:18:36;;;;;;;2.03;1.60;;;;;;;28.37;61.39;100608.44;4967657;28;20193;-74
2022/07/04 07:21:02;;;;;;;4.03;1.53;;;;;;;28.28;61.21;100613.53;4971566;28;20213;-74
2022/07/04 07:23:27;;;;;;;1.90;1.30;;;;;;;28.73;60.79;100618.03;4969541;28;20656;-74
2022/07/04 07:25:53;;;;;;;3.50;1.40;;;;;;;28.80;60.65;100613.03;4975535;28;20229;-75
2022/07/04 07:28:18;;;;;;;2.63;1.57;;;;;;;29.43;60.17;100614.16;4968979;28;20186;-75
2022/07/04 07:30:44;;;;;;;7.90;1.87;;;;;;;29.48;59.17;100620.81;4978100;28;20204;-74
2022/07/04 07:33:10;;;;;;;2.67;1.80;;;;;;;28.85;59.85;100612.66;4971802;28;20189;-74
2022/07/04 07:35:36;;;;;;;2.70;1.57;;;;;;;29.00;60.34;100615.88;4966756;28;20631;-74
2022/07/04 07:38:02;;;;;;;1.40;1.30;;;;;;;29.32;59.73;100610.56;4966121;28;20217;-76
2022/07/04 07:40:27;;;;;;;3.50;1.60;;;;;;;29.22;59.76;100614.13;4970620;28;20280;-75
2022/07/04 07:42:54;;;;;;;2.27;1.30;;;;;;;29.16;60.18;100616.31;4969958;28;20186;-75
2022/07/04 07:45:20;;;;;;;2.00;1.37;;;;;;;29.16;59.90;100621.63;4967358;28;20206;-75
2022/07/04 07:47:46;;;;;;;2.70;1.43;;;;;;;29.31;59.98;100610.66;4963066;28;20201;-75
2022/07/04 07:50:12;;;;;;;1.70;1.47;;;;;;;29.51;59.87;100617.03;4982148;28;20186;-75
2022/07/04 07:52:37;;;;;;;1.30;1.20;;;;;;;29.48;59.89;100612.81;4968327;28;20269;-75
2022/07/04 07:55:03;;;;;;;2.57;1.43;;;;;;;29.70;59.64;100619.00;4980918;28;20301;-75
2022/07/04 07:57:29;;;;;;;6.57;2.00;;;;;;;29.40;59.75;100620.63;4970800;28;20210;-75
2022/07/04 07:59:55;;;;;;;1.80;1.50;;;;;;;29.59;59.65;100619.03;4968656;28;20561;-76
2022/07/04 08:04:33;;;;;;;1.93;1.43;;;;;;;29.59;59.65;100614.56;4984433;28;20174;-75
2022/07/04 08:05:06;;;;;;;3.10;1.90;;;;;;;29.58;59.56;100609.34;4976821;28;20281;-73
2022/07/04 08:07:32;;;;;;;1.40;1.30;;;;;;;29.68;60.11;100607.63;4968083;28;20185;-74
2022/07/04 08:09:57;;;;;;;1.60;1.10;;;;;;;29.80;59.55;100606.56;4968124;28;20182;-74
2022/07/04 08:12:22;;;;;;;2.13;1.80;;;;;;;29.81;59.53;100607.41;4969432;28;20221;-74
2022/07/04 08:14:48;;;;;;;2.00;1.23;;;;;;;29.74;59.41;100598.25;4969589;28;20485;-74
2022/07/04 08:17:13;;;;;;;2.03;1.40;;;;;;;29.62;60.01;100598.31;4969826;28;20182;-74
2022/07/04 08:19:39;;;;;;;1.80;1.33;;;;;;;29.59;60.35;100597.72;4968754;28;20190;-74
2022/07/04 08:22:04;;;;;;;1.77;1.40;;;;;;;29.47;60.24;100591.63;4974840;28;20340;-74
2022/07/04 08:24:30;;;;;;;1.67;1.50;;;;;;;29.23;60.56;100589.16;4974405;28;20205;-75
2022/07/04 08:26:55;;;;;;;1.47;1.37;;;;;;;29.16;60.75;100586.16;4962945;28;20947;-74
2022/07/04 08:29:20;;;;;;;2.90;1.57;;;;;;;29.08;60.97;100584.13;4982927;28;20676;-75
2022/07/04 08:31:47;;;;;;;3.40;1.57;;;;;;;28.80;60.77;100582.88;4973310;28;20187;-74
2022/07/04 08:34:13;;;;;;;1.90;1.33;;;;;;;28.50;61.04;100577.25;4979582;28;20210;-76
2022/07/04 08:36:38;;;;;;;1.90;1.30;;;;;;;28.39;60.89;100572.78;4970804;28;20703;-77
2022/07/04 08:39:04;;;;;;;1.73;1.50;;;;;;;28.24;61.53;100569.50;4965543;28;20220;-77
2022/07/04 08:41:36;;;;;;;1.77;1.50;;;;;;;28.11;61.97;100564.34;4970315;28;20209;-76
2022/07/04 08:44:02;;;;;;;2.23;1.70;;;;;;;28.04;61.85;100565.72;4967060;28;20178;-74
2022/07/04 08:46:30;;;;;;;2.40;1.37;;;;;;;27.96;62.73;100561.00;4967783;28;20201;-75
2022/07/04 08:49:01;;;;;;;2.03;1.70;;;;;;;28.04;62.88;100551.59;4965427;28;20193;-76
2022/07/04 08:51:59;;;;;;;2.07;1.40;;;;;;;28.09;63.16;100552.97;4966696;28;20515;-75
2022/07/04 08:59:55;;;;;;;2.73;1.70;;;;;;;27.76;64.39;100551.94;4965600;28;20221;-76
2022/07/04 09:02:22;;;;;;;5.43;1.80;;;;;;;27.72;64.81;100553.13;4967574;28;20192;-75
2022/07/04 09:04:49;;;;;;;3.30;1.97;;;;;;;27.67;64.52;100545.53;4969566;28;20268;-76
2022/07/04 09:07:15;;;;;;;3.07;1.60;;;;;;;27.54;64.82;100547.44;4984664;28;20224;-76
2022/07/04 09:09:40;;;;;;;2.13;1.60;;;;;;;27.48;64.61;100551.41;4967928;28;20281;-76
2022/07/04 09:12:10;;;;;;;3.83;1.90;;;;;;;27.33;65.35;100548.06;4967241;28;20249;-75
2022/07/04 09:14:35;;;;;;;4.90;2.00;;;;;;;27.17;65.10;100550.19;4967430;28;20197;-75
2022/07/04 09:17:00;;;;;;;2.47;1.53;;;;;;;27.06;65.80;100546.53;4967760;28;20182;-75
2022/07/04 09:19:26;;;;;;;3.83;1.70;;;;;;;27.03;65.74;100546.75;4982360;28;20193;-75
2022/07/04 09:21:51;;;;;;;3.23;1.80;;;;;;;26.95;64.96;100559.75;4990920;28;20326;-75
2022/07/04 09:24:54;;;;;;;2.80;1.60;;;;;;;26.77;63.87;100551.31;4966617;28;20672;-76
2022/07/04 09:27:35;;;;;;;1.90;1.60;;;;;;;26.53;66.02;100552.13;4961076;28;20185;-74
2022/07/04 09:30:01;;;;;;;1.50;1.40;;;;;;;26.45;66.92;100555.34;4969457;28;20184;-75
2022/07/04 09:32:34;;;;;;;1.80;1.57;;;;;;;26.45;66.95;100557.16;4970906;28;20209;-76
2022/07/04 09:35:00;;;;;;;2.13;1.50;;;;;;;26.46;65.88;100561.50;4967258;28;20639;-75
2022/07/04 09:37:38;;;;;;;2.80;1.60;;;;;;;26.62;66.45;100566.53;4968891;28;20292;-74
2022/07/04 09:40:06;;;;;;;2.07;1.43;;;;;;;26.66;65.73;100567.16;4980996;28;20248;-74
2022/07/04 09:42:40;;;;;;;2.67;1.40;;;;;;;26.50;64.42;100572.75;4968647;28;20182;-76
2022/07/04 09:45:08;;;;;;;2.17;1.20;;;;;;;26.57;64.50;100585.47;4981102;28;20214;-76
2022/07/04 09:47:33;;;;;;;2.03;1.53;;;;;;;26.78;65.13;100580.41;4966754;28;20187;-76
2022/07/04 09:50:10;;;;;;;2.00;1.53;;;;;;;26.91;64.29;100575.09;4979739;28;20724;-76
2022/07/04 09:52:49;;;;;;;1.63;1.40;;;;;;;26.95;64.61;100578.34;4970923;28;20185;-76
2022/07/04 09:55:22;;;;;;;3.87;1.60;;;;;;;26.85;64.57;100572.88;4988259;28;20304;-76
2022/07/04 09:57:47;;;;;;;3.37;1.60;;;;;;;26.77;64.64;100575.22;4984394;28;20602;-77
2022/07/04 10:00:19;;;;;;;2.03;1.83;;;;;;;26.63;65.39;100576.22;4961172;28;20222;-76
2022/07/04 10:02:45;;;;;;;1.97;1.60;;;;;;;26.53;65.56;100573.38;4982303;28;20194;-75
2022/07/04 10:05:11;;;;;;;1.73;1.40;;;;;;;26.62;65.54;100574.50;4970807;28;20202;-76
2022/07/04 10:07:43;;;;;;;1.97;1.60;;;;;;;26.81;66.08;100589.13;4966786;28;20712;-76
2022/07/04 10:10:27;;;;;;;2.73;1.53;;;;;;;27.00;66.26;100585.97;4980740;28;20193;-76
2022/07/04 10:12:56;;;;;;;2.50;1.70;;;;;;;27.13;65.51;100580.63;4984052;28;20276;-76
2022/07/04 10:15:21;;;;;;;1.90;1.53;;;;;;;27.19;65.35;100585.44;4972672;28;20225;-76
2022/07/04 10:17:47;;;;;;;1.53;1.33;;;;;;;27.24;65.65;100580.66;4968310;28;20200;-77
2022/07/04 10:20:13;;;;;;;1.83;1.70;;;;;;;27.30;65.54;100577.53;4964423;28;20332;-76
2022/07/04 10:22:39;;;;;;;1.73;1.40;;;;;;;27.43;66.17;100577.44;4983875;28;20283;-77
2022/07/04 10:25:05;;;;;;;1.47;1.37;;;;;;;27.58;65.83;100572.81;4970645;28;20198;-76
2022/07/04 10:27:31;;;;;;;2.17;1.60;;;;;;;27.58;65.19;100570.16;4967437;28;20190;-75
2022/07/04 10:29:59;;;;;;;2.63;1.70;;;;;;;27.68;64.64;100571.16;4981788;28;21099;-76
2022/07/04 10:32:27;;;;;;;1.70;1.37;;;;;;;27.72;64.10;100565.59;4973072;28;20190;-76
2022/07/04 10:34:52;;;;;;;1.70;1.53;;;;;;;27.66;64.37;100569.56;4982458;28;20312;-76
2022/07/04 10:37:18;;;;;;;1.53;1.30;;;;;;;27.66;64.68;100566.91;4962905;28;20280;-76
2022/07/04 10:39:43;;;;;;;1.73;1.63;;;;;;;27.78;64.53;100565.09;4986115;28;20194;-77
2022/07/04 10:42:08;;;;;;;2.00;1.50;;;;;;;27.94;64.43;100567.44;4995473;28;20185;-77
2022/07/04 10:44:37;;;;;;;3.63;1.50;;;;;;;28.05;63.17;100564.78;4987463;28;20173;-76
2022/07/04 10:47:04;;;;;;;2.63;1.50;;;;;;;28.01;62.75;100560.66;4970724;28;20272;-76
2022/07/04 10:49:31;;;;;;;1.60;1.50;;;;;;;27.99;62.59;100559.91;4968067;28;20650;-76
2022/07/04 10:52:13;;;;;;;2.77;1.40;;;;;;;27.97;62.08;100567.19;4967685;28;20201;-76
2022/07/04 10:54:41;;;;;;;1.67;1.33;;;;;;;28.08;61.98;100558.34;4965567;28;20202;-76
2022/07/04 10:57:12;;;;;;;1.50;1.40;;;;;;;28.08;62.03;100551.22;4968523;28;20236;-76
2022/07/04 10:59:38;;;;;;;2.30;1.20;;;;;;;28.20;62.15;100548.59;4969218;28;20353;-76
2022/07/04 11:02:03;;;;;;;1.70;1.30;;;;;;;28.38;62.05;100541.81;4971107;28;20202;-76
2022/07/04 11:04:47;;;;;;;2.30;1.37;;;;;;;28.56;60.93;100542.13;4970621;28;20216;-76
2022/07/04 11:07:15;;;;;;;2.10;1.70;;;;;;;28.52;61.35;100530.03;4984438;28;20247;-76
2022/07/04 11:09:42;;;;;;;2.17;1.57;;;;;;;28.57;61.97;100535.00;4980803;28;20610;-76
2022/07/04 11:12:08;;;;;;;1.90;1.57;;;;;;;28.68;62.36;100539.41;4969050;28;20221;-75
2022/07/04 11:14:38;;;;;;;2.07;1.70;;;;;;;28.47;62.01;100532.22;4970172;28;20329;-76
2022/07/04 11:17:09;;;;;;;2.10;1.30;;;;;;;28.49;62.53;100535.63;4965098;28;20197;-76
2022/07/04 11:19:35;;;;;;;1.27;1.03;;;;;;;28.45;62.92;100532.34;4964590;28;20190;-76
2022/07/04 11:22:01;;;;;;;2.83;1.50;;;;;;;28.23;62.33;100530.56;4969417;28;20947;-76
2022/07/04 11:24:28;;;;;;;1.80;1.60;;;;;;;28.25;62.71;100525.13;4966560;28;20195;-76
2022/07/04 11:26:53;;;;;;;1.63;1.33;;;;;;;28.36;62.85;100526.94;4968408;28;20218;-76
2022/07/04 11:29:19;;;;;;;2.90;1.60;;;;;;;28.38;62.81;100524.97;4965034;28;20225;-77
2022/07/04 11:31:46;;;;;;;2.77;1.57;;;;;;;28.33;63.33;100521.84;4964681;28;20198;-76
2022/07/04 11:34:13;;;;;;;4.00;1.67;;;;;;;28.20;63.20;100521.97;4986765;28;20209;-76
2022/07/04 11:36:44;;;;;;;1.80;1.40;;;;;;;28.24;63.16;100515.47;4967158;28;20213;-76
2022/07/04 11:39:12;;;;;;;3.43;1.83;;;;;;;27.84;63.08;100514.94;4969886;28;20192;-76